Time;durP1;ratioP1;P1;durP2;ratioP2;P2;SDS_P1;SDS_P2;PMS_P1;PMS_P2;Temp;Humidity;BMP_temperature;BMP_pressure;BME280_temperature;BME280_humidity;BME280_pressure;Samples;Min_cycle;Max_cycle;Signal;HPM_P1;HPM_P2
2024/03/07 00:00:31;;;;;;;;;55.00;40.33;;;;;6.98;100.00;99477.78;6306620;20;3617013;-39
2024/03/07 00:03:00;;;;;;;;;46.00;40.50;;;;;6.87;100.00;99477.41;6269212;20;2843923;-41
2024/03/07 00:05:29;;;;;;;;;48.50;40.50;;;;;6.74;100.00;99478.03;6269831;20;2844065;-43
2024/03/07 00:07:59;;;;;;;;;50.00;41.33;;;;;6.22;100.00;99472.56;6275441;20;3616033;-40
2024/03/07 00:10:28;;;;;;;;;43.67;37.33;;;;;6.17;100.00;99482.56;6308210;20;2861727;-41
2024/03/07 00:12:58;;;;;;;;;51.00;41.00;;;;;6.11;100.00;99474.88;6310881;20;2858688;-42
2024/03/07 00:15:29;;;;;;;;;43.00;38.00;;;;;6.01;100.00;99484.22;6309157;20;2859626;-40
2024/03/07 00:18:00;;;;;;;;;49.67;41.67;;;;;6.21;100.00;99483.28;6310822;20;3598193;-43
2024/03/07 00:20:28;;;;;;;;;44.50;37.50;;;;;6.17;100.00;99474.56;6283963;20;2847153;-41
2024/03/07 00:22:58;;;;;;;;;65.67;48.67;;;;;6.23;100.00;99476.94;6273839;20;3642012;-40
2024/03/07 00:25:28;;;;;;;;;71.33;52.00;;;;;6.23;100.00;99478.75;6307335;20;3639878;-40
2024/03/07 00:28:02;;;;;;;;;63.33;47.00;;;;;6.09;100.00;99474.94;6308764;20;3636701;-40
2024/03/07 00:30:31;;;;;;;;;43.00;38.50;;;;;6.42;100.00;99481.41;6310106;20;2855606;-41
2024/03/07 00:33:01;;;;;;;;;45.67;39.33;;;;;6.49;100.00;99478.38;6278347;20;2865948;-41
2024/03/07 00:35:29;;;;;;;;;45.33;36.33;;;;;6.57;100.00;99476.19;6310477;20;3591975;-40
2024/03/07 00:37:58;;;;;;;;;37.00;35.00;;;;;6.59;100.00;99478.78;6310615;20;3580487;-40
2024/03/07 00:40:27;;;;;;;;;36.50;35.50;;;;;6.20;100.00;99471.75;6276819;20;2844796;-40
2024/03/07 00:42:56;;;;;;;;;46.50;38.00;;;;;6.27;100.00;99472.34;6276896;20;2858612;-40
2024/03/07 00:45:25;;;;;;;;;53.33;42.00;;;;;6.46;100.00;99481.19;6276250;20;2857627;-39
2024/03/07 00:47:55;;;;;;;;;54.33;41.00;;;;;6.47;100.00;99484.72;6309308;20;2867051;-39
2024/03/07 00:50:25;;;;;;;;;51.33;38.67;;;;;6.32;100.00;99478.31;6310257;20;3621243;-39
2024/03/07 00:52:54;;;;;;;;;45.33;39.33;;;;;6.70;100.00;99483.59;6308209;20;2872237;-39
2024/03/07 00:55:24;;;;;;;;;45.33;37.33;;;;;6.98;100.00;99485.78;6304885;20;3620059;-40
2024/03/07 00:57:53;;;;;;;;;39.67;35.00;;;;;7.07;100.00;99487.97;6307161;20;3614858;-40
2024/03/07 01:00:22;;;;;;;;;47.33;39.67;;;;;6.55;100.00;99483.38;6311070;20;3606644;-40
2024/03/07 01:02:53;;;;;;;;;44.00;38.00;;;;;6.78;100.00;99482.28;6277430;20;2857610;-39
2024/03/07 01:05:23;;;;;;;;;38.00;32.67;;;;;6.86;100.00;99492.56;6274231;20;3612752;-39
2024/03/07 01:07:52;;;;;;;;;39.00;34.67;;;;;6.90;100.00;99486.16;6310276;20;3609023;-39
2024/03/07 01:10:22;;;;;;;;;47.00;37.67;;;;;6.92;100.00;99489.59;6279602;20;3618079;-42
2024/03/07 01:12:53;;;;;;;;;41.00;33.00;;;;;6.76;100.00;99492.16;6309498;20;3621156;-40
2024/03/07 01:15:22;;;;;;;;;32.33;30.33;;;;;6.67;100.00;99489.94;6308857;20;3595106;-41
2024/03/07 01:17:51;;;;;;;;;50.00;39.67;;;;;6.89;100.00;99484.41;6274116;20;3610043;-40
2024/03/07 01:20:21;;;;;;;;;40.00;36.50;;;;;7.00;100.00;99484.75;6304851;20;2856637;-40
2024/03/07 01:22:51;;;;;;;;;45.33;35.67;;;;;6.88;100.00;99482.69;6276863;20;3620076;-40
2024/03/07 01:25:21;;;;;;;;;39.50;33.50;;;;;7.36;100.00;99477.59;6306808;20;3484645;-41
2024/03/07 01:27:51;;;;;;;;;33.67;31.00;;;;;6.64;100.00;99479.44;6311325;20;3602822;-40
2024/03/07 01:30:23;;;;;;;;;40.33;33.33;;;;;6.61;100.00;99474.25;6277552;20;3604962;-41
2024/03/07 01:32:51;;;;;;;;;29.50;27.00;;;;;6.61;100.00;99471.59;6306836;20;2843023;-39
2024/03/07 01:35:21;;;;;;;;;33.33;29.33;;;;;6.66;100.00;99480.22;6274599;20;2859179;-39
2024/03/07 01:37:50;;;;;;;;;25.50;23.50;;;;;6.62;100.00;99475.97;6306549;20;2835777;-40
2024/03/07 01:40:17;;;;;;;;;29.00;23.50;;;;;6.80;100.00;99471.53;6274721;20;2500299;-40
2024/03/07 01:42:50;;;;;;;;;35.00;30.50;;;;;6.72;100.00;99469.25;6276172;20;2863799;-41
2024/03/07 01:45:19;;;;;;;;;34.33;33.00;;;;;6.55;100.00;99474.53;6275761;20;3604431;-43
2024/03/07 01:47:48;;;;;;;;;31.00;28.00;;;;;6.61;100.00;99471.59;6306225;20;2845107;-40
2024/03/07 01:50:17;;;;;;;;;31.50;23.50;;;;;6.63;100.00;99474.16;6277299;20;2853384;-40
2024/03/07 01:52:47;;;;;;;;;36.50;33.00;;;;;6.62;100.00;99478.63;6275573;20;2863831;-43
2024/03/07 01:55:16;;;;;;;;;26.50;23.00;;;;;6.47;100.00;99471.38;6269946;20;2839880;-40
2024/03/07 01:57:45;;;;;;;;;25.00;25.00;;;;;6.40;100.00;99477.94;6274532;20;2844040;-41
2024/03/07 02:00:14;;;;;;;;;34.00;26.00;;;;;6.49;100.00;99477.50;6273735;20;2864883;-40
2024/03/07 02:02:43;;;;;;;;;23.50;23.50;;;;;6.53;100.00;99473.72;6274756;20;2835751;-40
2024/03/07 02:05:13;;;;;;;;;26.50;24.00;;;;;6.36;100.00;99472.75;6272079;20;2842023;-40
2024/03/07 02:07:43;;;;;;;;;27.00;26.00;;;;;6.43;100.00;99472.47;6273369;20;2840936;-40
2024/03/07 02:10:12;;;;;;;;;27.00;23.50;;;;;6.58;100.00;99475.25;6277423;20;2833662;-39
2024/03/07 02:12:40;;;;;;;;;30.50;24.50;;;;;6.68;100.00;99474.81;6275642;20;2853478;-40
2024/03/07 02:15:09;;;;;;;;;25.00;23.50;;;;;6.75;100.00;99473.56;6273155;20;2852357;-39
2024/03/07 02:17:39;;;;;;;;;28.00;26.00;;;;;6.67;100.00;99465.94;6275579;20;2839971;-40
2024/03/07 02:20:10;;;;;;;;;27.00;27.00;;;;;7.05;100.00;99471.16;6275652;20;2839861;-40
2024/03/07 02:22:40;;;;;;;;;32.50;24.50;;;;;6.82;100.00;99470.53;6276144;20;2865924;-40
2024/03/07 02:25:19;;;;;;;;;28.00;25.50;;;;;6.52;100.00;99469.34;6274000;20;2847187;-40
2024/03/07 02:27:48;;;;;;;;;30.50;28.00;;;;;6.74;100.00;99455.81;6274348;20;2852543;-40
2024/03/07 02:30:18;;;;;;;;;30.50;26.50;;;;;6.34;100.00;99466.63;6274110;20;2841934;-40
2024/03/07 02:32:51;;;;;;;;;28.50;27.50;;;;;6.42;100.00;99462.72;6274238;20;2854474;-41
2024/03/07 02:35:21;;;;;;;;;25.50;22.50;;;;;6.42;100.00;99462.72;6273044;20;2848258;-41
2024/03/07 02:37:49;;;;;;;;;31.00;25.00;;;;;6.42;100.00;99460.06;6274997;20;2852385;-40
2024/03/07 02:40:18;;;;;;;;;24.50;23.50;;;;;6.38;100.00;99460.22;6274807;20;2844106;-40
2024/03/07 02:42:47;;;;;;;;;24.00;21.50;;;;;6.38;100.00;99468.22;6275103;20;2837775;-39
2024/03/07 02:45:16;;;;;;;;;27.00;23.50;;;;;6.58;100.00;99467.25;6273667;20;2850329;-40
2024/03/07 02:47:44;;;;;;;;;22.00;19.50;;;;;6.45;100.00;99470.56;6275508;20;2828436;-40
2024/03/07 02:50:12;;;;;;;;;26.00;26.00;;;;;6.40;100.00;99459.25;6273849;20;2492014;-40
2024/03/07 02:52:41;;;;;;;;;28.33;24.67;;;;;6.43;100.00;99464.47;6274141;20;3585746;-39
2024/03/07 02:55:10;;;;;;;;;23.00;23.00;;;;;6.35;100.00;99476.38;6275631;20;2835723;-40
2024/03/07 02:57:39;;;;;;;;;22.67;19.67;;;;;6.32;100.00;99476.50;6273583;20;3573200;-40
2024/03/07 03:00:19;;;;;;;;;24.00;19.00;;;;;6.37;100.00;99473.59;6269987;20;2500242;-40
2024/03/07 03:02:48;;;;;;;;;22.00;20.00;;;;;6.29;100.00;99475.78;6273810;20;2822116;-40
2024/03/07 03:05:18;;;;;;;;;15.67;14.33;;;;;6.35;100.00;99471.03;6273117;20;3523181;-42
2024/03/07 03:07:54;;;;;;;;;25.00;21.00;;;;;6.28;100.00;99464.25;6274459;20;2826290;-40
2024/03/07 03:10:26;;;;;;;;;26.50;22.00;;;;;6.30;100.00;99473.06;6274341;20;2838941;-39
2024/03/07 03:12:57;;;;;;;;;23.50;20.00;;;;;6.27;100.00;99478.53;6275791;20;2831558;-41
2024/03/07 03:15:26;;;;;;;;;30.50;23.50;;;;;6.55;100.00;99477.19;6270733;20;2498381;-41
2024/03/07 03:17:54;;;;;;;;;24.00;20.50;;;;;6.32;100.00;99473.00;6270968;20;2500728;-42
2024/03/07 03:20:25;;;;;;;;;26.50;23.00;;;;;6.40;100.00;99472.59;6271732;20;2496204;-42
2024/03/07 03:22:54;;;;;;;;;25.00;21.00;;;;;6.23;100.00;99474.28;6271922;20;2498202;-38
2024/03/07 03:25:42;;;;;;;;;19.00;19.00;;;;;6.46;100.00;99472.31;6274949;20;2833700;-42
2024/03/07 03:28:10;;;;;;;;;21.00;19.50;;;;;6.26;100.00;99476.78;6273255;20;2500276;-41
2024/03/07 03:30:42;;;;;;;;;22.50;21.00;;;;;6.28;100.00;99474.91;6273983;20;2837804;-41
2024/03/07 03:33:10;;;;;;;;;26.50;26.00;;;;;6.21;100.00;99478.81;6271130;20;2498187;-42
2024/03/07 03:35:40;;;;;;;;;23.33;22.00;;;;;6.22;100.00;99479.69;6274024;20;3576295;-41
2024/03/07 03:38:09;;;;;;;;;23.00;22.50;;;;;6.29;100.00;99481.09;6274892;20;2844053;-41
2024/03/07 03:40:38;;;;;;;;;22.00;21.00;;;;;6.22;100.00;99485.88;6274323;20;3567944;-40
2024/03/07 03:43:06;;;;;;;;;21.50;19.00;;;;;6.27;100.00;99473.19;6275150;20;2500802;-40
2024/03/07 03:45:33;;;;;;;;;25.00;21.00;;;;;6.18;100.00;99478.09;6275592;20;2835750;-40
2024/03/07 03:48:02;;;;;;;;;25.50;20.50;;;;;6.10;100.00;99481.13;6277330;20;2500424;-40
2024/03/07 03:50:31;;;;;;;;;24.00;21.00;;;;;6.18;100.00;99481.63;6278214;20;2496250;-41
2024/03/07 03:53:01;;;;;;;;;18.50;18.00;;;;;6.08;100.00;99482.97;6282017;20;2821219;-41
2024/03/07 03:55:32;;;;;;;;;22.00;21.67;;;;;6.26;100.00;99474.13;6276748;20;3567958;-40
2024/03/07 03:58:01;;;;;;;;;25.67;20.33;;;;;6.05;100.00;99480.47;6281647;20;3573327;-41
2024/03/07 04:00:29;;;;;;;;;25.50;21.00;;;;;6.04;100.00;99482.25;6280997;20;2839879;-41
2024/03/07 04:02:57;;;;;;;;;25.50;20.00;;;;;6.03;100.00;99485.00;6276155;20;2498199;-40
2024/03/07 04:05:26;;;;;;;;;27.00;25.50;;;;;6.07;100.00;99483.94;6275510;20;2856533;-40
2024/03/07 04:07:55;;;;;;;;;24.00;19.50;;;;;6.12;100.00;99473.91;6276576;20;2487802;-41
2024/03/07 04:10:26;;;;;;;;;24.00;23.00;;;;;5.99;100.00;99478.09;6278255;20;2848241;-40
2024/03/07 04:12:55;;;;;;;;;26.00;20.00;;;;;5.98;100.00;99476.34;6278899;20;2826355;-41
2024/03/07 04:15:26;;;;;;;;;30.50;21.00;;;;;5.94;100.00;99480.97;6277378;20;2500425;-40
2024/03/07 04:17:56;;;;;;;;;24.00;22.00;;;;;5.91;100.00;99475.75;6276738;20;2841962;-39
2024/03/07 04:20:24;;;;;;;;;25.00;24.00;;;;;5.86;100.00;99473.28;6280198;20;2500497;-40
2024/03/07 04:22:52;;;;;;;;;21.50;21.50;;;;;5.89;100.00;99478.47;6274239;20;2500434;-42
2024/03/07 04:25:20;;;;;;;;;23.00;20.00;;;;;6.15;100.00;99476.44;6274624;20;2498220;-40
2024/03/07 04:27:49;;;;;;;;;22.50;21.00;;;;;6.49;100.00;99477.50;6280794;20;2842145;-39
2024/03/07 04:30:17;;;;;;;;;26.00;21.00;;;;;6.27;100.00;99481.19;6275856;20;2500284;-40
2024/03/07 04:32:46;;;;;;;;;25.00;22.50;;;;;6.36;100.00;99480.75;6278587;20;2831509;-39
2024/03/07 04:35:14;;;;;;;;;23.50;23.50;;;;;6.44;100.00;99484.84;6273609;20;2496122;-40
2024/03/07 04:37:47;;;;;;;;;31.00;23.50;;;;;6.30;100.00;99490.84;6279508;20;2856581;-39
2024/03/07 04:40:16;;;;;;;;;21.50;20.00;;;;;6.22;100.00;99491.22;6277925;20;2830516;-39
2024/03/07 04:42:49;;;;;;;;;26.00;21.00;;;;;6.19;100.00;99491.38;6278360;20;2496106;-39
2024/03/07 04:45:21;;;;;;;;;24.00;21.00;;;;;6.37;100.00;99501.16;6277019;20;2841975;-39
2024/03/07 04:47:49;;;;;;;;;21.50;19.50;;;;;6.64;100.00;99499.91;6278606;20;2832570;-40
2024/03/07 04:50:18;;;;;;;;;22.33;22.00;;;;;6.07;100.00;99497.25;6278937;20;3584647;-40
2024/03/07 04:52:48;;;;;;;;;24.50;20.00;;;;;6.49;100.00;99501.50;6278139;20;2498244;-40
2024/03/07 04:55:17;;;;;;;;;19.50;16.50;;;;;6.45;100.00;99503.47;6274291;20;2496096;-40
2024/03/07 04:57:47;;;;;;;;;22.00;22.00;;;;;6.47;100.00;99506.03;6278557;20;2840891;-40
2024/03/07 05:00:18;;;;;;;;;20.50;20.50;;;;;6.79;100.00;99507.16;6275706;20;2500281;-39
2024/03/07 05:02:52;;;;;;;;;22.00;22.00;;;;;6.78;100.00;99506.28;6280633;20;2500289;-40
2024/03/07 05:05:25;;;;;;;;;26.00;23.00;;;;;6.71;100.00;99507.50;6275731;20;2841920;-40
2024/03/07 05:07:55;;;;;;;;;29.50;25.50;;;;;6.70;100.00;99503.13;6280135;20;2843547;-39
2024/03/07 05:10:24;;;;;;;;;22.00;22.00;;;;;6.62;100.00;99502.66;6278814;20;2840940;-39
2024/03/07 05:12:54;;;;;;;;;36.33;27.67;;;;;6.53;100.00;99508.41;6278697;20;2864898;-40
2024/03/07 05:15:25;;;;;;;;;25.00;25.00;;;;;6.68;100.00;99513.00;6307750;20;2842002;-40
2024/03/07 05:17:56;;;;;;;;;27.00;22.00;;;;;6.64;100.00;99508.78;6279306;20;2844073;-40
2024/03/07 05:20:24;;;;;;;;;28.00;24.50;;;;;6.76;100.00;99516.16;6278334;20;2843141;-39
2024/03/07 05:22:53;;;;;;;;;29.50;26.00;;;;;6.51;100.00;99512.97;6276602;20;2847201;-40
2024/03/07 05:25:22;;;;;;;;;28.00;26.50;;;;;6.53;100.00;99516.41;6275592;20;2848327;-40
2024/03/07 05:27:51;;;;;;;;;27.00;26.00;;;;;6.06;100.00;99516.84;6275509;20;2848191;-39
2024/03/07 05:30:21;;;;;;;;;29.50;27.00;;;;;5.90;100.00;99522.84;6277313;20;2842015;-40
2024/03/07 05:32:50;;;;;;;;;28.50;26.50;;;;;6.02;100.00;99515.25;6276039;20;2842998;-40
2024/03/07 05:35:20;;;;;;;;;27.00;26.00;;;;;6.22;100.00;99520.53;6275755;20;2840894;-40
2024/03/07 05:37:50;;;;;;;;;32.00;26.50;;;;;6.25;100.00;99523.06;6277614;20;2852404;-40
2024/03/07 05:40:20;;;;;;;;;27.50;23.00;;;;;6.10;100.00;99529.94;6278130;20;2839881;-39
2024/03/07 05:42:49;;;;;;;;;24.50;24.00;;;;;6.42;100.00;99529.41;6277651;20;2844062;-41
2024/03/07 05:45:18;;;;;;;;;29.00;25.50;;;;;6.68;100.00;99526.34;6276503;20;2836750;-40
2024/03/07 05:47:47;;;;;;;;;27.00;25.50;;;;;6.66;100.00;99530.91;6278241;20;2850248;-41
2024/03/07 05:50:18;;;;;;;;;28.00;25.00;;;;;6.62;100.00;99532.00;6278839;20;2854413;-40
2024/03/07 05:52:48;;;;;;;;;25.50;21.00;;;;;6.74;100.00;99534.06;6277451;20;2832663;-41
2024/03/07 05:55:19;;;;;;;;;29.00;25.00;;;;;6.77;100.00;99533.06;6276310;20;2846583;-40
2024/03/07 05:57:48;;;;;;;;;25.50;22.00;;;;;6.55;100.00;99531.41;6276698;20;2834631;-44
2024/03/07 06:00:26;;;;;;;;;26.00;23.00;;;;;6.62;100.00;99534.66;6276338;20;2836756;-40
2024/03/07 06:02:56;;;;;;;;;26.00;26.00;;;;;6.78;100.00;99532.97;6274078;20;2492013;-39
2024/03/07 06:05:24;;;;;;;;;30.00;23.00;;;;;6.81;100.00;99542.63;6272317;20;2566966;-41
2024/03/07 06:07:54;;;;;;;;;25.00;25.00;;;;;6.67;100.00;99540.63;6277092;20;2849295;-43
2024/03/07 06:10:26;;;;;;;;;25.00;21.00;;;;;6.64;100.00;99546.13;6274552;20;2835699;-40
2024/03/07 06:12:55;;;;;;;;;28.00;26.50;;;;;6.62;100.00;99541.81;6277799;20;2840106;-40
2024/03/07 06:15:39;;;;;;;;;24.50;21.00;;;;;6.75;100.00;99548.28;6274499;20;2841922;-38
2024/03/07 06:18:08;;;;;;;;;26.00;24.00;;;;;6.72;100.00;99543.09;6275620;20;2841910;-40
2024/03/07 06:20:41;;;;;;;;;34.00;27.00;;;;;6.33;100.00;99541.38;6277686;20;2852331;-39
2024/03/07 06:23:16;;;;;;;;;22.00;22.00;;;;;6.36;100.00;99555.41;6270318;20;2500291;-42
2024/03/07 06:25:47;;;;;;;;;28.50;27.00;;;;;6.67;100.00;99556.66;6277473;20;2841987;-39
2024/03/07 06:28:18;;;;;;;;;30.00;25.50;;;;;6.79;100.00;99549.84;6275824;20;2857639;-39
2024/03/07 06:30:47;;;;;;;;;26.00;24.00;;;;;6.08;100.00;99562.94;6277145;20;2841958;-39
2024/03/07 06:33:16;;;;;;;;;23.00;23.00;;;;;6.59;100.00;99558.81;6275212;20;2849246;-41
2024/03/07 06:35:46;;;;;;;;;32.50;25.00;;;;;6.87;100.00;99562.81;6275315;20;2853432;-41
2024/03/07 06:38:15;;;;;;;;;33.00;26.00;;;;;6.79;100.00;99569.41;6274041;20;2849461;-41
2024/03/07 06:40:43;;;;;;;;;26.50;25.50;;;;;6.15;100.00;99562.59;6272315;20;2478479;-40
2024/03/07 06:43:12;;;;;;;;;30.50;28.50;;;;;6.19;100.00;99575.78;6276013;20;2855947;-42
2024/03/07 06:45:41;;;;;;;;;29.50;27.00;;;;;6.54;100.00;99576.84;6273931;20;2500312;-43
2024/03/07 06:48:12;;;;;;;;;36.00;33.33;;;;;6.82;100.00;99571.94;6276040;20;2864950;-43
2024/03/07 06:50:42;;;;;;;;;30.33;27.00;;;;;6.89;100.00;99576.97;6307718;20;3596087;-43
2024/03/07 06:53:11;;;;;;;;;30.00;26.50;;;;;6.89;100.00;99580.47;6276106;20;2854422;-48
2024/03/07 06:55:40;;;;;;;;;33.00;26.00;;;;;6.89;100.00;99576.97;6274076;20;2853515;-42
2024/03/07 06:58:10;;;;;;;;;27.50;25.50;;;;;6.86;100.00;99577.09;6275757;20;2844060;-41
2024/03/07 07:00:40;;;;;;;;;27.00;25.00;;;;;6.91;100.00;99583.09;6274617;20;2845113;-40
2024/03/07 07:03:10;;;;;;;;;27.50;26.00;;;;;6.75;100.00;99585.63;6273886;20;2837923;-40
2024/03/07 07:05:44;;;;;;;;;22.50;21.50;;;;;6.84;100.00;99581.66;6273119;20;2826315;-40
2024/03/07 07:08:16;;;;;;;;;25.50;25.00;;;;;6.91;100.00;99583.09;6274748;20;2849346;-42
2024/03/07 07:10:44;;;;;;;;;26.50;23.50;;;;;6.92;100.00;99584.81;6276479;20;2842141;-43
2024/03/07 07:13:13;;;;;;;;;30.00;25.00;;;;;6.67;100.00;99588.66;6273839;20;2846428;-44
2024/03/07 07:15:43;;;;;;;;;30.00;29.00;;;;;6.94;100.00;99589.13;6275576;20;2843995;-41
2024/03/07 07:18:13;;;;;;;;;30.67;29.00;;;;;6.76;100.00;99593.53;6276455;20;2852862;-43
2024/03/07 07:20:43;;;;;;;;;26.50;24.50;;;;;6.94;100.00;99596.28;6312311;20;2848175;-40
2024/03/07 07:23:13;;;;;;;;;30.00;26.00;;;;;6.98;100.00;99597.88;6279549;20;2849328;-39
2024/03/07 07:25:41;;;;;;;;;28.50;27.00;;;;;7.06;100.00;99601.03;6280413;20;2847121;-40
2024/03/07 07:28:11;;;;;;;;;32.00;28.00;;;;;6.32;100.00;99599.16;6278032;20;2850267;-40
2024/03/07 07:30:40;;;;;;;;;27.50;26.50;;;;;6.64;100.00;99595.94;6281493;20;2851911;-40
2024/03/07 07:33:13;;;;;;;;;31.50;26.50;;;;;6.64;100.00;99603.97;6280459;20;2853891;-39
2024/03/07 07:35:43;;;;;;;;;22.00;21.00;;;;;6.92;100.00;99604.34;6280444;20;2838778;-39
2024/03/07 07:38:14;;;;;;;;;27.00;23.00;;;;;6.56;100.00;99601.63;6279692;20;2850292;-39
2024/03/07 07:40:44;;;;;;;;;22.50;22.50;;;;;6.62;100.00;99600.50;6282382;20;2837879;-40
2024/03/07 07:43:13;;;;;;;;;25.50;23.00;;;;;6.72;100.00;99605.31;6281226;20;2847365;-42
2024/03/07 07:45:56;;;;;;;;;23.00;21.00;;;;;5.99;100.00;99609.53;6280963;20;2832618;-39
2024/03/07 07:48:24;;;;;;;;;25.00;21.00;;;;;6.08;100.00;99614.47;6280043;20;2498266;-39
2024/03/07 07:50:52;;;;;;;;;26.00;20.50;;;;;6.29;100.00;99609.97;6270734;20;2500264;-39
2024/03/07 07:53:20;;;;;;;;;25.50;21.00;;;;;6.33;100.00;99611.56;6277513;20;2489884;-40
2024/03/07 07:55:48;;;;;;;;;22.00;19.00;;;;;6.08;100.00;99610.91;6279254;20;2498618;-40
2024/03/07 07:58:17;;;;;;;;;21.00;17.33;;;;;6.23;100.00;99604.03;6279363;20;3557619;-39
2024/03/07 08:00:48;;;;;;;;;23.00;19.00;;;;;6.21;100.00;99617.44;6282988;20;2827414;-40
2024/03/07 08:03:17;;;;;;;;;22.00;18.50;;;;;6.28;100.00;99618.88;6279064;20;2837786;-39
2024/03/07 08:05:45;;;;;;;;;23.50;19.50;;;;;6.25;100.00;99613.69;6279416;20;2492005;-40
2024/03/07 08:08:16;;;;;;;;;19.50;19.50;;;;;6.22;100.00;99620.97;6277315;20;2496138;-39
2024/03/07 08:10:45;;;;;;;;;24.33;19.00;;;;;6.13;100.00;99620.47;6282273;20;3559684;-40
2024/03/07 08:13:15;;;;;;;;;19.67;17.00;;;;;6.30;100.00;99622.34;6279491;20;3554555;-40
2024/03/07 08:15:44;;;;;;;;;19.67;19.00;;;;;6.31;100.00;99624.06;6277593;20;3560678;-40
2024/03/07 08:18:12;;;;;;;;;21.00;19.00;;;;;6.76;100.00;99625.56;6279467;20;2498197;-40
2024/03/07 08:20:42;;;;;;;;;17.67;17.67;;;;;7.03;98.93;99620.75;6277389;20;3562765;-39
2024/03/07 08:23:12;;;;;;;;;18.00;18.00;;;;;6.46;100.00;99625.19;6309704;20;2841944;-39
2024/03/07 08:25:41;;;;;;;;;21.00;21.00;;;;;6.36;100.00;99630.06;6279188;20;3581512;-40
2024/03/07 08:28:11;;;;;;;;;21.00;20.00;;;;;6.69;100.00;99624.13;6277725;20;2830500;-39
2024/03/07 08:30:40;;;;;;;;;18.00;16.67;;;;;6.50;100.00;99633.91;6277963;20;3549193;-39
2024/03/07 08:33:08;;;;;;;;;19.00;17.50;;;;;6.93;100.00;99637.28;6277047;20;2500279;-39
2024/03/07 08:35:37;;;;;;;;;19.00;19.00;;;;;7.03;100.00;99626.06;6276317;20;3563321;-40
2024/03/07 08:38:05;;;;;;;;;23.00;19.50;;;;;6.50;100.00;99639.25;6282365;20;2839911;-39
2024/03/07 08:40:34;;;;;;;;;22.67;20.33;;;;;6.75;100.00;99634.53;6279047;20;3567967;-39
2024/03/07 08:43:03;;;;;;;;;24.00;21.00;;;;;6.80;100.00;99643.19;6277470;20;2500292;-39
2024/03/07 08:45:35;;;;;;;;;25.00;20.50;;;;;6.74;100.00;99643.47;6279217;20;2852491;-40
2024/03/07 08:48:04;;;;;;;;;20.00;19.00;;;;;7.17;100.00;99633.41;6278939;20;2825362;-49
2024/03/07 08:50:34;;;;;;;;;23.00;20.50;;;;;6.89;100.00;99641.88;6276123;20;2500436;-39
2024/03/07 08:53:04;;;;;;;;;18.50;18.50;;;;;7.20;100.00;99645.75;6278432;20;2496201;-39
2024/03/07 08:55:35;;;;;;;;;18.33;16.00;;;;;6.65;100.00;99641.22;6275268;20;3554460;-40
2024/03/07 08:58:06;;;;;;;;;22.00;17.00;;;;;6.87;99.80;99642.88;6278180;20;2829952;-40
2024/03/07 09:00:35;;;;;;;;;21.00;21.00;;;;;6.64;99.18;99642.16;6276897;20;2500356;-43
2024/03/07 09:03:09;;;;;;;;;22.33;17.33;;;;;6.98;100.00;99643.25;6278164;20;3552490;-40
2024/03/07 09:05:41;;;;;;;;;27.33;21.67;;;;;6.96;97.31;99647.78;6308921;20;3586434;-40
2024/03/07 09:08:11;;;;;;;;;24.00;19.00;;;;;7.18;96.97;99636.94;6278803;20;3563823;-40
2024/03/07 09:10:41;;;;;;;;;29.00;23.00;;;;;6.99;97.13;99647.66;6275228;20;2500383;-39
2024/03/07 09:13:12;;;;;;;;;19.00;19.00;;;;;7.31;96.49;99648.75;6277850;20;2829419;-39
2024/03/07 09:15:41;;;;;;;;;22.00;22.00;;;;;6.92;97.22;99652.38;6276649;20;2848230;-39
2024/03/07 09:18:10;;;;;;;;;20.00;20.00;;;;;7.15;98.43;99653.97;6277872;20;2837781;-41
2024/03/07 09:20:38;;;;;;;;;22.00;20.00;;;;;6.98;98.90;99651.25;6276591;20;2492048;-39
2024/03/07 09:23:07;;;;;;;;;20.00;18.50;;;;;7.22;95.48;99649.22;6277624;20;2833746;-39
2024/03/07 09:25:36;;;;;;;;;24.00;22.00;;;;;7.26;96.85;99651.63;6275179;20;2834786;-42
2024/03/07 09:28:05;;;;;;;;;20.50;18.00;;;;;6.88;97.70;99660.63;6275152;20;2500330;-39
2024/03/07 09:30:38;;;;;;;;;26.50;22.00;;;;;7.14;99.01;99657.59;6276150;20;2501089;-39
2024/03/07 09:33:10;;;;;;;;;30.00;26.00;;;;;7.10;98.71;99658.66;6277816;20;2850293;-39
2024/03/07 09:35:40;;;;;;;;;26.50;25.00;;;;;7.14;100.00;99660.28;6278508;20;2844032;-38
2024/03/07 09:38:09;;;;;;;;;31.00;26.00;;;;;7.44;98.25;99659.72;6277981;20;2852373;-39
2024/03/07 09:40:38;;;;;;;;;25.00;24.00;;;;;7.53;96.25;99658.38;6276252;20;2847197;-40
2024/03/07 09:43:09;;;;;;;;;22.50;22.50;;;;;7.15;97.05;99659.31;6276118;20;2844614;-39
2024/03/07 09:45:40;;;;;;;;;29.50;22.00;;;;;7.15;94.00;99666.47;6272614;20;2864869;-40
2024/03/07 09:48:12;;;;;;;;;32.33;26.67;;;;;7.56;94.85;99666.28;6277244;20;2853466;-38
2024/03/07 09:50:45;;;;;;;;;23.00;23.00;;;;;7.09;95.33;99661.44;6305879;20;2842982;-39
2024/03/07 09:53:14;;;;;;;;;31.00;27.50;;;;;7.23;94.05;99661.63;6276194;20;2832723;-39
2024/03/07 09:55:43;;;;;;;;;30.50;26.50;;;;;7.66;93.10;99665.72;6272993;20;2848253;-39
2024/03/07 09:58:15;;;;;;;;;31.50;30.50;;;;;7.33;91.59;99668.25;6277071;20;2855524;-39
2024/03/07 10:00:45;;;;;;;;;27.00;25.00;;;;;7.30;91.92;99665.72;6274913;20;2838833;-40
2024/03/07 10:03:13;;;;;;;;;25.00;24.00;;;;;7.51;90.14;99668.31;6271499;20;2831699;-40
2024/03/07 10:05:42;;;;;;;;;29.00;25.00;;;;;7.85;91.61;99675.50;6273700;20;2500271;-39
2024/03/07 10:08:12;;;;;;;;;26.00;22.33;;;;;7.42;91.11;99673.13;6275257;20;2857669;-38
2024/03/07 10:10:43;;;;;;;;;26.00;22.00;;;;;7.30;90.38;99667.53;6306945;20;2852368;-40
2024/03/07 10:13:13;;;;;;;;;26.50;26.50;;;;;7.50;91.00;99674.56;6272980;20;2841964;-39
2024/03/07 10:15:43;;;;;;;;;27.50;26.00;;;;;7.25;90.87;99676.63;6277292;20;2846217;-39
2024/03/07 10:18:13;;;;;;;;;27.50;23.00;;;;;7.19;92.45;99681.41;6276545;20;2846113;-40
2024/03/07 10:20:44;;;;;;;;;28.00;23.50;;;;;7.05;90.47;99679.38;6276969;20;2839973;-40
2024/03/07 10:23:22;;;;;;;;;31.00;28.50;;;;;7.36;91.72;99677.91;6277691;20;2850443;-42
2024/03/07 10:25:51;;;;;;;;;27.50;27.50;;;;;7.14;91.49;99688.78;6272841;20;2500288;-40
2024/03/07 10:28:20;;;;;;;;;31.00;27.67;;;;;7.60;91.70;99687.38;6275636;20;2846135;-40
2024/03/07 10:30:50;;;;;;;;;30.50;27.00;;;;;7.04;91.69;99689.19;6306067;20;2840951;-40
2024/03/07 10:33:19;;;;;;;;;29.00;24.00;;;;;7.10;91.59;99688.03;6276091;20;2845238;-38
2024/03/07 10:35:50;;;;;;;;;29.50;26.00;;;;;7.24;90.65;99690.94;6275298;20;2843048;-39
2024/03/07 10:38:21;;;;;;;;;28.00;26.67;;;;;7.58;91.26;99685.72;6278600;20;2844176;-39
2024/03/07 10:40:55;;;;;;;;;26.50;25.00;;;;;7.44;90.70;99686.41;6306413;20;2844030;-40
2024/03/07 10:43:30;;;;;;;;;31.33;27.00;;;;;7.31;89.09;99685.28;6275452;20;2851334;-39
2024/03/07 10:46:02;;;;;;;;;40.00;34.67;;;;;7.38;90.41;99676.03;6309179;20;3602363;-40
2024/03/07 10:48:40;;;;;;;;;75.00;56.33;;;;;7.25;88.87;99687.31;6272111;20;3634664;-38
2024/03/07 10:51:26;;;;;;;;;28.00;25.00;;;;;7.53;89.90;99688.66;6302592;20;2847223;-41
2024/03/07 10:54:38;;;;;;;;;31.00;28.00;;;;;7.21;91.58;99685.75;6273098;20;3604409;-40
2024/03/07 10:57:46;;;;;;;;;35.00;26.00;;;;;7.43;91.00;99690.03;6304586;20;2862838;-40
2024/03/07 11:00:30;;;;;;;;;33.00;29.50;;;;;7.52;92.66;99697.59;6273855;20;2852405;-39
2024/03/07 11:02:59;;;;;;;;;29.67;25.00;;;;;7.23;91.24;99691.00;6275908;20;3583645;-42
2024/03/07 11:05:29;;;;;;;;;26.33;24.67;;;;;7.60;90.57;99687.38;6272360;20;2848435;-40
2024/03/07 11:08:04;;;;;;;;;30.67;29.33;;;;;7.34;90.65;99682.47;6305970;20;3584891;-39
2024/03/07 11:10:36;;;;;;;;;28.00;26.00;;;;;7.51;91.77;99687.88;6275172;20;2845140;-40
2024/03/07 11:13:12;;;;;;;;;33.67;32.67;;;;;7.50;90.24;99688.78;6273584;20;3602351;-40
2024/03/07 11:15:47;;;;;;;;;27.00;24.50;;;;;7.44;92.28;99687.28;6302624;20;2845172;-40